Time;durP1;ratioP1;P1;durP2;ratioP2;P2;SDS_P1;SDS_P2;PMS_P1;PMS_P2;Temp;Humidity;BMP_temperature;BMP_pressure;BME280_temperature;BME280_humidity;BME280_pressure;Samples;Min_cycle;Max_cycle;Signal;HPM_P1;HPM_P2
2022/01/16 00:01:59;;;;;;;7.57;5.13;;;;;;;2.05;100.00;102049.97;5000626;28;20052;-73
2022/01/16 00:04:27;;;;;;;12.07;6.40;;;;;;;2.10;100.00;102063.66;5007458;28;20108;-73
2022/01/16 00:06:54;;;;;;;12.40;5.75;;;;;;;2.13;100.00;102087.75;4997470;28;20068;-72
2022/01/16 00:09:20;;;;;;;16.65;6.57;;;;;;;2.07;100.00;102082.72;4995210;28;20054;-73
2022/01/16 00:11:47;;;;;;;16.50;9.10;;;;;;;1.99;100.00;102100.19;4995028;28;20053;-74
2022/01/16 00:14:15;;;;;;;10.60;5.93;;;;;;;1.96;100.00;102097.66;4995466;28;20065;-72
2022/01/16 00:16:41;;;;;;;14.25;8.50;;;;;;;1.91;100.00;102081.38;4997352;28;20053;-73
2022/01/16 00:19:08;;;;;;;46.53;7.75;;;;;;;1.89;100.00;102085.75;4996622;28;20088;-74
2022/01/16 00:21:40;;;;;;;9.30;6.22;;;;;;;1.86;100.00;102087.53;4997591;28;20561;-72
2022/01/16 00:24:07;;;;;;;;;;;;;;;1.83;100.00;102083.28;5000240;28;20073;-72
2022/01/16 00:26:35;;;;;;;8.35;5.65;;;;;;;1.80;100.00;102088.53;5000465;28;19972;-72
2022/01/16 00:29:03;;;;;;;16.73;6.15;;;;;;;1.87;100.00;102092.69;4996156;28;20128;-73
2022/01/16 00:31:31;;;;;;;12.23;7.53;;;;;;;1.88;100.00;102088.38;4998728;28;20046;-73
2022/01/16 00:33:57;;;;;;;19.60;5.95;;;;;;;1.88;100.00;102091.81;5002462;28;20420;-75
2022/01/16 00:36:24;;;;;;;21.30;7.70;;;;;;;1.84;100.00;102100.53;5002699;28;20057;-72
2022/01/16 00:38:53;;;;;;;17.25;8.65;;;;;;;1.89;100.00;102132.38;5001663;28;20065;-73
2022/01/16 00:41:21;;;;;;;11.13;6.95;;;;;;;1.86;100.00;102124.66;5004331;28;20048;-72
2022/01/16 00:43:48;;;;;;;6.38;4.72;;;;;;;1.84;100.00;102120.41;5001959;28;20054;-73
2022/01/16 00:46:17;;;;;;;13.10;5.38;;;;;;;1.91;100.00;102117.66;5016934;28;20093;-71
2022/01/16 00:48:45;;;;;;;7.68;5.53;;;;;;;1.91;100.00;102106.41;5015201;28;20064;-72
2022/01/16 00:51:12;;;;;;;21.33;6.32;;;;;;;1.89;100.00;102123.72;5014283;28;20096;-72
2022/01/16 00:53:43;;;;;;;10.35;4.95;;;;;;;1.84;100.00;102123.84;5003767;28;20038;-73
2022/01/16 00:56:09;;;;;;;15.32;7.80;;;;;;;1.85;100.00;102102.22;4996713;28;20168;-71
2022/01/16 00:58:36;;;;;;;11.30;5.03;;;;;;;1.82;100.00;102098.84;4997879;28;20053;-73
2022/01/16 01:01:03;;;;;;;12.45;5.55;;;;;;;1.82;100.00;102071.22;5001483;28;20558;-71
2022/01/16 01:03:30;;;;;;;12.07;7.20;;;;;;;1.80;100.00;102074.75;5006997;28;20046;-72
2022/01/16 01:05:58;;;;;;;8.50;6.32;;;;;;;1.81;100.00;102077.28;5002994;28;20041;-72
2022/01/16 01:08:27;;;;;;;18.85;7.07;;;;;;;1.81;100.00;102085.06;4999001;28;20508;-73
2022/01/16 01:10:54;;;;;;;16.00;7.10;;;;;;;1.75;100.00;102081.75;5000491;28;20129;-72
2022/01/16 01:13:31;;;;;;;15.45;5.63;;;;;;;1.73;100.00;102092.16;5001608;28;20050;-73
2022/01/16 01:16:02;;;;;;;19.25;8.55;;;;;;;1.76;100.00;102092.09;4999974;28;20447;-73
2022/01/16 01:18:31;;;;;;;19.90;9.25;;;;;;;1.80;100.00;102080.75;5000631;28;20053;-73
2022/01/16 01:21:01;;;;;;;14.25;7.13;;;;;;;1.80;100.00;102091.13;4998927;28;20060;-72
2022/01/16 01:23:28;;;;;;;9.73;6.85;;;;;;;1.81;100.00;102068.66;4994392;28;20128;-72
2022/01/16 01:25:55;;;;;;;20.60;10.45;;;;;;;1.76;100.00;102078.28;4999538;28;20168;-73
2022/01/16 01:28:21;;;;;;;24.42;11.25;;;;;;;1.78;100.00;102085.13;4999426;28;20049;-74
2022/01/16 01:30:48;;;;;;;18.38;9.15;;;;;;;1.82;100.00;102081.59;4996728;28;20048;-73
2022/01/16 01:33:18;;;;;;;24.05;9.18;;;;;;;1.84;100.00;102082.41;4999076;28;20060;-73
2022/01/16 01:35:45;;;;;;;18.77;7.80;;;;;;;1.89;100.00;102051.19;5002867;28;20753;-72
2022/01/16 01:38:17;;;;;;;16.63;7.32;;;;;;;1.90;100.00;102004.53;4998138;28;20046;-73
2022/01/16 01:40:48;;;;;;;14.50;8.63;;;;;;;1.94;100.00;101998.38;4997850;28;20057;-72
2022/01/16 01:51:36;;;;;;;14.90;7.97;;;;;;;1.90;100.00;102017.50;4997276;28;20114;-73
2022/01/16 01:54:06;;;;;;;13.80;7.07;;;;;;;1.93;100.00;102034.69;4998451;28;20140;-73
2022/01/16 01:56:33;;;;;;;11.52;7.72;;;;;;;1.96;100.00;102047.59;4998964;28;20056;-73
2022/01/16 01:59:01;;;;;;;13.05;7.22;;;;;;;1.92;100.00;102039.03;4998736;28;20052;-74
2022/01/16 02:01:29;;;;;;;25.30;8.88;;;;;;;1.85;100.00;102053.00;5013335;28;20072;-72
2022/01/16 02:03:56;;;;;;;21.38;7.68;;;;;;;1.90;100.00;102063.25;5000299;28;20048;-72
2022/01/16 02:06:24;;;;;;;12.60;7.68;;;;;;;1.86;100.00;102062.47;4995943;28;20063;-72
2022/01/16 02:08:52;;;;;;;15.95;9.57;;;;;;;1.84;100.00;102077.22;4999485;28;20052;-72
2022/01/16 02:11:25;;;;;;;13.90;7.68;;;;;;;1.86;100.00;102064.22;4999276;28;20683;-72
2022/01/16 02:14:06;;;;;;;17.48;7.47;;;;;;;1.77;100.00;102057.50;4997686;28;20444;-72
2022/01/16 02:28:17;;;;;;;16.23;6.30;;;;;;;1.88;100.00;102065.91;5016649;28;20058;-72
2022/01/16 02:35:59;;;;;;;12.88;7.82;;;;;;;1.93;100.00;102095.13;4997969;28;20049;-73
2022/01/16 02:38:27;;;;;;;12.45;7.63;;;;;;;1.95;100.00;102098.53;4998169;28;20080;-72
2022/01/16 02:40:59;;;;;;;18.10;8.32;;;;;;;1.97;100.00;102089.00;4999780;28;20037;-73
2022/01/16 02:43:31;;;;;;;11.40;6.88;;;;;;;1.96;100.00;102089.88;4999388;28;20060;-71
2022/01/16 02:46:35;;;;;;;10.40;7.32;;;;;;;1.92;100.00;102077.91;4998992;28;20129;-73
2022/01/16 02:48:57;;;;;;;15.32;6.57;;;;;;;1.85;100.00;102065.94;4996768;28;20049;-73
2022/01/16 02:51:26;;;;;;;33.45;5.72;;;;;;;1.88;100.00;102059.88;5001142;28;20063;-72
2022/01/16 02:53:54;;;;;;;14.95;8.48;;;;;;;1.89;100.00;102056.38;5003314;28;20493;-72
2022/01/16 02:56:21;;;;;;;24.58;11.48;;;;;;;1.85;100.00;102050.41;5004125;28;20049;-73
2022/01/16 02:58:49;;;;;;;22.45;7.63;;;;;;;1.87;100.00;102040.88;5005502;28;20034;-74
2022/01/16 03:01:16;;;;;;;25.48;10.68;;;;;;;1.85;100.00;102037.47;5008247;28;20692;-74
2022/01/16 03:03:43;;;;;;;8.20;4.82;;;;;;;1.89;100.00;102035.66;5000291;28;20041;-72
2022/01/16 03:06:09;;;;;;;12.85;5.45;;;;;;;1.92;100.00;102036.47;5002458;28;20201;-73
2022/01/16 03:08:36;;;;;;;11.35;7.68;;;;;;;1.94;100.00;102029.47;4998582;28;20508;-72
2022/01/16 03:11:17;;;;;;;14.65;7.68;;;;;;;1.99;100.00;102025.06;5000295;28;20041;-72
2022/01/16 03:13:47;;;;;;;16.52;7.18;;;;;;;2.00;100.00;102019.00;4997930;28;20258;-72
2022/01/16 03:16:13;;;;;;;11.85;6.68;;;;;;;2.03;100.00;102026.66;5000601;28;20045;-72
2022/01/16 03:24:09;;;;;;;8.98;6.65;;;;;;;2.06;100.00;102028.31;5012734;28;20045;-73
2022/01/16 03:26:36;;;;;;;13.45;7.32;;;;;;;2.06;100.00;102015.38;5014368;28;20029;-73
2022/01/16 03:29:04;;;;;;;17.15;7.10;;;;;;;2.05;100.00;102024.06;5026227;28;20085;-72
2022/01/16 03:31:31;;;;;;;12.52;7.20;;;;;;;2.05;100.00;102022.31;5020861;28;20049;-73
2022/01/16 03:33:58;;;;;;;28.88;7.75;;;;;;;2.06;100.00;102020.56;5016872;28;20188;-72
2022/01/16 03:36:25;;;;;;;12.48;7.03;;;;;;;2.06;100.00;102021.41;5008482;28;20046;-71
2022/01/16 03:38:51;;;;;;;21.08;9.13;;;;;;;2.06;100.00;102024.00;5002885;28;20049;-72
2022/01/16 03:41:18;;;;;;;29.48;8.20;;;;;;;2.04;100.00;102012.81;5000329;28;20405;-73
2022/01/16 03:43:47;;;;;;;25.50;9.48;;;;;;;2.02;100.00;102017.19;4997828;28;20053;-72
2022/01/16 03:46:13;;;;;;;13.10;6.60;;;;;;;1.96;100.00;102012.16;4996238;28;20045;-71
2022/01/16 03:48:40;;;;;;;35.42;9.05;;;;;;;1.98;100.00;102019.88;4998566;28;20053;-71
2022/01/16 03:51:07;;;;;;;15.32;8.55;;;;;;;1.97;100.00;102018.22;4995099;28;20058;-72
2022/01/16 03:53:34;;;;;;;17.45;8.75;;;;;;;2.00;100.00;102023.31;4997368;28;20184;-72
2022/01/16 03:56:01;;;;;;;16.10;8.73;;;;;;;1.99;100.00;102019.00;4995815;28;20057;-73
2022/01/16 03:58:27;;;;;;;24.00;10.30;;;;;;;1.98;100.00;102025.94;4997169;28;20049;-72
2022/01/16 04:00:56;;;;;;;16.58;9.52;;;;;;;1.97;100.00;102013.88;5000380;28;20037;-72
2022/01/16 04:03:23;;;;;;;15.95;8.18;;;;;;;1.99;100.00;102012.09;4996072;28;20054;-72
2022/01/16 04:05:49;;;;;;;16.30;9.60;;;;;;;1.98;100.00;102007.81;4997219;28;20100;-71
2022/01/16 04:08:16;;;;;;;15.82;8.00;;;;;;;2.01;100.00;102012.06;4999192;28;20112;-73
2022/01/16 04:10:42;;;;;;;17.30;9.48;;;;;;;1.93;100.00;102012.22;4994479;28;20072;-71
2022/01/16 04:13:11;;;;;;;15.63;9.18;;;;;;;1.96;100.00;102019.94;4997565;28;20513;-73
2022/01/16 04:15:37;;;;;;;18.35;8.63;;;;;;;1.98;100.00;102019.88;4999191;28;20576;-71
2022/01/16 04:18:07;;;;;;;17.88;9.85;;;;;;;2.00;100.00;102013.81;4999186;28;20851;-71
2022/01/16 04:20:35;;;;;;;27.90;11.27;;;;;;;2.04;100.00;102014.56;4997531;28;20057;-72
2022/01/16 04:23:02;;;;;;;16.52;8.70;;;;;;;2.01;100.00;102025.00;4995891;28;20156;-72
2022/01/16 04:25:29;;;;;;;19.05;9.15;;;;;;;2.00;100.00;102016.41;5000905;28;20049;-73
2022/01/16 04:27:56;;;;;;;18.05;9.93;;;;;;;2.02;100.00;102024.97;4996273;28;20519;-72
2022/01/16 04:30:23;;;;;;;18.33;10.52;;;;;;;2.00;100.00;102019.00;5001434;28;20043;-73
2022/01/16 04:32:50;;;;;;;26.90;10.68;;;;;;;2.04;100.00;102019.75;5005173;28;20046;-71
2022/01/16 04:35:18;;;;;;;19.70;9.30;;;;;;;2.03;100.00;102018.88;5007448;28;20084;-72
2022/01/16 04:37:46;;;;;;;31.92;9.63;;;;;;;2.06;100.00;102029.19;5011970;28;20070;-74
2022/01/16 04:40:14;;;;;;;28.35;9.65;;;;;;;2.06;100.00;102016.25;5002282;28;20061;-72
2022/01/16 04:45:25;;;;;;;24.25;9.98;;;;;;;2.07;100.00;102009.31;5000091;28;20076;-72
2022/01/16 04:47:52;;;;;;;22.63;11.02;;;;;;;2.10;100.00;102014.41;5001794;28;20050;-71
2022/01/16 04:50:22;;;;;;;23.40;10.48;;;;;;;2.12;100.00;102013.50;5001685;28;20045;-72
2022/01/16 04:52:49;;;;;;;15.68;8.32;;;;;;;2.14;100.00;102018.63;5004530;28;20259;-74
2022/01/16 04:55:16;;;;;;;14.07;9.07;;;;;;;2.14;100.00;102018.63;5002783;28;20041;-73
2022/01/16 04:57:43;;;;;;;18.80;10.27;;;;;;;2.09;100.00;102010.13;5004338;28;20052;-73
2022/01/16 05:00:12;;;;;;;16.67;10.18;;;;;;;2.16;100.00;102017.72;5006500;28;20139;-72
2022/01/16 05:02:39;;;;;;;19.45;10.30;;;;;;;2.11;100.00;102014.38;5017174;28;20060;-72
2022/01/16 05:05:06;;;;;;;22.40;9.20;;;;;;;2.16;100.00;102020.31;5008360;28;20042;-71
2022/01/16 05:07:35;;;;;;;21.58;11.73;;;;;;;2.17;100.00;102014.25;5003544;28;20155;-73
2022/01/16 05:10:02;;;;;;;25.23;10.07;;;;;;;2.20;100.00;102006.38;5003913;28;20042;-71
2022/01/16 05:12:33;;;;;;;21.52;11.30;;;;;;;2.19;100.00;102009.84;5006947;28;20056;-71
2022/01/16 05:17:46;;;;;;;17.95;9.43;;;;;;;2.26;100.00;102006.22;5021759;28;20041;-72
2022/01/16 05:20:15;;;;;;;39.03;11.50;;;;;;;2.25;100.00;102014.91;5009185;28;20057;-71
2022/01/16 05:22:43;;;;;;;16.00;9.85;;;;;;;2.28;100.00;102017.41;5014865;28;20137;-71
2022/01/16 05:25:12;;;;;;;15.30;8.32;;;;;;;2.24;100.00;102010.59;5034119;28;20062;-71
2022/01/16 05:27:39;;;;;;;25.25;12.65;;;;;;;2.19;100.00;102002.06;5031952;28;20034;-72
2022/01/16 05:30:08;;;;;;;16.15;9.75;;;;;;;2.20;100.00;101998.59;5033859;28;20056;-72
2022/01/16 05:32:35;;;;;;;17.98;9.57;;;;;;;2.23;100.00;101998.53;5027007;28;20048;-71
2022/01/16 05:35:02;;;;;;;13.23;8.75;;;;;;;2.25;100.00;102003.66;5016244;28;20182;-72
2022/01/16 05:37:28;;;;;;;13.05;9.30;;;;;;;2.26;100.00;102002.78;5015922;28;20051;-71
2022/01/16 05:39:58;;;;;;;18.38;10.65;;;;;;;2.28;100.00;102009.63;5010852;28;20050;-74
2022/01/16 05:42:24;;;;;;;26.50;12.63;;;;;;;2.27;100.00;101997.53;5007610;28;20033;-72
2022/01/16 05:44:51;;;;;;;16.45;10.88;;;;;;;2.30;100.00;101992.28;5006197;28;20045;-72
2022/01/16 05:47:17;;;;;;;21.92;10.27;;;;;;;2.36;100.00;102002.50;5022058;28;20412;-72
2022/01/16 05:49:45;;;;;;;19.98;12.43;;;;;;;2.35;100.00;102003.38;5007028;28;20050;-71
2022/01/16 05:52:13;;;;;;;19.17;10.45;;;;;;;2.37;100.00;102009.38;5020966;28;20053;-72
2022/01/16 05:54:39;;;;;;;16.75;9.82;;;;;;;2.36;100.00;102005.09;5006178;28;20038;-74
2022/01/16 05:57:08;;;;;;;27.08;10.70;;;;;;;2.39;100.00;102008.44;5013455;28;20049;-73
2022/01/16 05:59:35;;;;;;;16.90;11.05;;;;;;;2.39;100.00;102003.28;5024742;28;20072;-72
2022/01/16 06:02:01;;;;;;;18.17;11.73;;;;;;;2.43;100.00;102022.19;5020245;28;20052;-72
2022/01/16 06:04:30;;;;;;;17.02;11.07;;;;;;;2.38;100.00;102003.31;5023741;28;20049;-71
2022/01/16 06:06:56;;;;;;;21.23;12.18;;;;;;;2.40;100.00;102007.56;5008449;28;20057;-71
2022/01/16 06:09:25;;;;;;;19.05;9.90;;;;;;;2.43;100.00;102002.31;5000340;28;20143;-73
2022/01/16 06:11:53;;;;;;;16.63;9.07;;;;;;;2.47;100.00;101996.13;5000836;28;20046;-73
2022/01/16 06:14:21;;;;;;;22.35;11.70;;;;;;;2.44;100.00;102005.75;4998929;28;20041;-72
2022/01/16 06:16:48;;;;;;;21.52;9.77;;;;;;;2.52;100.00;102004.66;5002504;28;20669;-72
2022/01/16 06:19:15;;;;;;;20.13;11.77;;;;;;;2.51;100.00;102002.09;4999498;28;20046;-72
2022/01/16 06:21:41;;;;;;;17.75;10.27;;;;;;;2.56;100.00;102000.25;5001121;28;20052;-73
2022/01/16 06:24:08;;;;;;;16.35;10.93;;;;;;;2.59;100.00;101993.22;4998867;28;20124;-72
2022/01/16 06:26:34;;;;;;;23.77;10.90;;;;;;;2.59;100.00;101994.97;4999800;28;20064;-72
2022/01/16 06:29:01;;;;;;;21.85;9.45;;;;;;;2.61;100.00;102003.56;5001132;28;20046;-73
2022/01/16 06:31:29;;;;;;;17.20;10.23;;;;;;;2.59;100.00;101994.97;5003396;28;20050;-71
2022/01/16 06:33:58;;;;;;;22.67;11.48;;;;;;;2.64;100.00;102004.31;5005828;28;20060;-72
2022/01/16 06:36:25;;;;;;;19.35;10.77;;;;;;;2.67;100.00;102005.97;5013011;28;20052;-67
2022/01/16 06:38:53;;;;;;;20.35;12.07;;;;;;;2.69;100.00;102006.78;5016472;28;20060;-72
2022/01/16 06:41:20;;;;;;;14.18;9.98;;;;;;;2.74;100.00;102004.94;5014804;28;20037;-72
2022/01/16 06:43:47;;;;;;;16.17;10.82;;;;;;;2.76;100.00;102014.38;5013004;28;20053;-72
2022/01/16 06:46:13;;;;;;;22.70;11.05;;;;;;;2.77;100.00;102010.03;5010999;28;20045;-75
2022/01/16 06:48:41;;;;;;;18.17;11.82;;;;;;;2.82;100.00;102019.41;5018277;28;20077;-74
2022/01/16 06:51:08;;;;;;;22.08;14.45;;;;;;;2.84;100.00;102020.22;5011166;28;20103;-70
2022/01/16 06:53:35;;;;;;;17.60;10.45;;;;;;;2.87;100.00;102014.94;5014103;28;20041;-71
2022/01/16 06:56:02;;;;;;;28.38;12.48;;;;;;;2.90;100.00;102016.59;5012881;28;20427;-71
2022/01/16 06:58:28;;;;;;;19.48;11.43;;;;;;;2.89;100.00;102027.88;5018332;28;20053;-72
2022/01/16 07:00:55;;;;;;;16.52;9.65;;;;;;;2.93;99.93;102038.13;5014878;28;20080;-71
2022/01/16 07:03:22;;;;;;;20.20;10.25;;;;;;;2.97;100.00;102044.09;5012714;28;20046;-72
2022/01/16 07:05:50;;;;;;;19.48;10.75;;;;;;;2.99;100.00;102027.56;5021139;28;20080;-73
2022/01/16 07:08:18;;;;;;;20.65;11.48;;;;;;;3.00;100.00;102043.97;5014823;28;20057;-72
2022/01/16 07:10:46;;;;;;;20.08;12.38;;;;;;;3.00;100.00;102034.47;5007846;28;20083;-74
2022/01/16 07:13:13;;;;;;;23.45;11.10;;;;;;;3.03;100.00;102038.72;5017574;28;20045;-71
2022/01/16 07:15:40;;;;;;;13.93;9.90;;;;;;;3.09;100.00;102046.31;5017773;28;20068;-72
2022/01/16 07:18:06;;;;;;;28.92;13.25;;;;;;;3.09;100.00;102052.38;5012781;28;20045;-72
2022/01/16 07:20:33;;;;;;;22.25;12.80;;;;;;;3.09;100.00;102054.97;5017749;28;20125;-73
2022/01/16 07:23:01;;;;;;;25.38;13.98;;;;;;;3.14;100.00;102066.06;5028739;28;20041;-72
2022/01/16 07:25:27;;;;;;;23.75;11.77;;;;;;;3.14;100.00;102070.44;5040009;28;20037;-73
2022/01/16 07:27:54;;;;;;;30.77;12.43;;;;;;;3.22;100.00;102067.56;5029234;28;20041;-72
2022/01/16 07:30:20;;;;;;;25.10;13.95;;;;;;;3.20;100.00;102069.34;5017387;28;20045;-71
2022/01/16 07:32:47;;;;;;;25.85;11.20;;;;;;;3.24;100.00;102081.34;5013864;28;20057;-72
2022/01/16 07:35:14;;;;;;;26.50;14.45;;;;;;;3.26;100.00;102074.38;5016292;28;20041;-73
2022/01/16 07:37:40;;;;;;;21.25;11.18;;;;;;;3.31;99.98;102082.03;5012183;28;20067;-72
2022/01/16 07:40:10;;;;;;;23.63;12.73;;;;;;;3.33;99.67;102093.22;5015628;28;20042;-72
2022/01/16 07:42:36;;;;;;;15.43;10.20;;;;;;;3.34;100.00;102085.38;5010190;28;20053;-73
2022/01/16 07:45:03;;;;;;;14.10;8.90;;;;;;;3.35;99.84;102079.31;5015721;28;20129;-72
2022/01/16 07:47:30;;;;;;;28.10;13.45;;;;;;;3.39;99.53;102075.75;5015916;28;20044;-72
2022/01/16 07:49:56;;;;;;;12.93;9.27;;;;;;;3.43;100.00;102092.91;5011898;28;20045;-71
2022/01/16 07:52:23;;;;;;;24.25;12.45;;;;;;;3.44;99.30;102092.03;5017535;28;20137;-72
2022/01/16 07:54:49;;;;;;;24.05;11.25;;;;;;;3.48;99.43;102096.25;5013095;28;20065;-72
2022/01/16 07:57:17;;;;;;;13.30;7.93;;;;;;;3.52;99.29;102092.66;5011733;28;20050;-68
2022/01/16 07:59:44;;;;;;;25.80;13.05;;;;;;;3.53;99.09;102102.16;5009215;28;20050;-69
2022/01/16 08:02:10;;;;;;;26.15;9.95;;;;;;;3.58;99.21;102102.88;5013454;28;20120;-70
2022/01/16 08:04:37;;;;;;;21.63;12.98;;;;;;;3.62;98.58;102104.50;5007541;28;20054;-73
2022/01/16 08:07:07;;;;;;;18.50;11.38;;;;;;;3.64;98.56;102097.50;5015200;28;20057;-74
2022/01/16 08:09:33;;;;;;;20.42;9.93;;;;;;;3.70;98.08;102106.84;5020940;28;20131;-73
2022/01/16 08:12:00;;;;;;;22.60;12.27;;;;;;;3.70;98.68;102105.13;5014774;28;20042;-73
2022/01/16 08:14:27;;;;;;;14.63;8.05;;;;;;;3.75;98.68;102098.03;5018571;28;20046;-74
2022/01/16 08:16:56;;;;;;;20.65;13.38;;;;;;;3.78;98.49;102099.66;5032474;28;20057;-73
2022/01/16 08:19:22;;;;;;;16.50;8.57;;;;;;;3.82;97.82;102085.72;5019457;28;20204;-73
2022/01/16 08:21:49;;;;;;;17.52;10.05;;;;;;;3.84;97.38;102100.34;5020351;28;20053;-72
2022/01/16 08:24:15;;;;;;;19.95;9.82;;;;;;;3.83;97.37;102088.25;5016181;28;20045;-73
2022/01/16 08:26:42;;;;;;;16.52;10.75;;;;;;;3.84;97.79;102089.94;5019605;28;20041;-73
2022/01/16 08:29:08;;;;;;;15.98;11.13;;;;;;;3.83;97.68;102085.66;5023137;28;20037;-73
2022/01/16 08:31:37;;;;;;;35.25;13.43;;;;;;;3.85;96.91;102091.66;5015020;28;20053;-74
2022/01/16 08:34:03;;;;;;;15.18;9.73;;;;;;;3.96;96.83;102097.41;5020534;28;20049;-73
2022/01/16 08:36:30;;;;;;;14.68;8.40;;;;;;;3.96;96.66;102098.22;5020263;28;20049;-73
2022/01/16 08:38:57;;;;;;;25.70;13.40;;;;;;;4.02;96.06;102099.78;5019789;28;20072;-72
2022/01/16 08:41:24;;;;;;;16.88;9.55;;;;;;;4.03;95.97;102096.31;5022529;28;20045;-73
2022/01/16 08:43:50;;;;;;;18.15;8.85;;;;;;;4.06;95.81;102098.81;5016383;28;20053;-74
2022/01/16 08:46:17;;;;;;;15.38;8.05;;;;;;;4.11;96.07;102100.34;5011715;28;20045;-73
2022/01/16 08:48:45;;;;;;;22.05;11.90;;;;;;;4.13;95.25;102095.97;5019069;28;20045;-74
2022/01/16 08:51:13;;;;;;;21.10;12.75;;;;;;;4.17;95.59;102107.97;5019981;28;20053;-72
2022/01/16 08:53:39;;;;;;;13.30;6.97;;;;;;;4.23;95.73;102115.59;5016960;28;20122;-73
2022/01/16 08:56:06;;;;;;;30.00;7.55;;;;;;;4.29;94.39;102124.94;5017190;28;20050;-73
2022/01/16 08:58:33;;;;;;;9.90;6.78;;;;;;;4.28;94.29;102123.25;5016275;28;20125;-73
2022/01/16 09:01:00;;;;;;;21.88;11.00;;;;;;;4.27;94.73;102129.34;5022377;28;20042;-73
2022/01/16 09:03:26;;;;;;;14.68;7.45;;;;;;;4.30;94.43;102124.88;5016204;28;20124;-74
2022/01/16 09:05:54;;;;;;;25.65;10.07;;;;;;;4.31;94.88;102118.78;5023332;28;20037;-73
2022/01/16 09:08:21;;;;;;;23.98;9.48;;;;;;;4.34;94.32;102118.69;5017755;28;20045;-72
2022/01/16 09:10:48;;;;;;;25.23;12.27;;;;;;;4.31;94.70;102108.38;5020793;28;20069;-72
2022/01/16 09:13:16;;;;;;;10.70;6.90;;;;;;;4.37;94.40;102112.53;5020810;28;20052;-73
2022/01/16 09:15:43;;;;;;;20.70;11.70;;;;;;;4.39;94.70;102126.38;5019970;28;20046;-73
2022/01/16 09:18:10;;;;;;;8.65;6.15;;;;;;;4.39;94.39;102123.75;5044722;28;20050;-73
2022/01/16 09:20:37;;;;;;;15.18;8.63;;;;;;;4.43;95.19;102135.75;5040800;28;20048;-72
2022/01/16 09:23:05;;;;;;;14.70;7.40;;;;;;;4.44;94.69;102145.25;5031115;28;20042;-74
2022/01/16 09:25:32;;;;;;;20.63;11.80;;;;;;;4.46;94.83;102143.47;5022091;28;20038;-72
2022/01/16 09:27:58;;;;;;;14.30;10.68;;;;;;;4.49;95.21;102143.34;5017149;28;20053;-73
2022/01/16 09:30:26;;;;;;;25.25;10.65;;;;;;;4.51;95.43;102144.16;5018014;28;20072;-73
2022/01/16 09:32:52;;;;;;;15.95;8.65;;;;;;;4.55;94.89;102149.22;5017518;28;20389;-73
2022/01/16 09:35:19;;;;;;;30.27;13.18;;;;;;;4.59;94.57;102155.16;5018175;28;20054;-72
2022/01/16 09:37:46;;;;;;;26.95;12.00;;;;;;;4.58;94.79;102158.66;5020278;28;20124;-73
2022/01/16 09:40:17;;;;;;;12.75;8.00;;;;;;;4.66;95.21;102161.88;5008324;28;20048;-73
2022/01/16 09:42:44;;;;;;;19.63;8.50;;;;;;;4.67;94.61;102155.78;5014720;28;20048;-72
2022/01/16 09:45:13;;;;;;;28.83;12.52;;;;;;;4.63;94.67;102157.63;5009392;28;20144;-73
2022/01/16 09:47:40;;;;;;;25.90;12.48;;;;;;;4.68;94.46;102154.88;5018153;28;20070;-73
2022/01/16 09:50:08;;;;;;;15.38;9.90;;;;;;;4.66;95.01;102151.47;5020206;28;20041;-73
2022/01/16 09:52:36;;;;;;;23.88;12.70;;;;;;;4.72;94.79;102159.09;5014504;28;20069;-73
2022/01/16 09:55:03;;;;;;;19.77;11.57;;;;;;;4.73;94.55;102162.47;5012696;28;20044;-72
2022/01/16 09:57:31;;;;;;;15.32;7.88;;;;;;;4.77;94.47;102174.50;5015598;28;20063;-73
2022/01/16 09:59:57;;;;;;;19.85;9.98;;;;;;;4.81;94.24;102172.66;5019051;28;20124;-72
2022/01/16 10:02:24;;;;;;;29.27;11.90;;;;;;;4.85;94.86;102175.09;5018765;28;20049;-73
2022/01/16 10:04:53;;;;;;;14.75;9.00;;;;;;;4.91;94.99;102182.69;5017822;28;20053;-73
2022/01/16 10:07:20;;;;;;;19.98;9.45;;;;;;;4.93;94.42;102185.25;5035146;28;20041;-71
2022/01/16 10:10:06;;;;;;;24.65;12.40;;;;;;;4.99;94.70;102185.91;5022294;28;20121;-73
2022/01/16 10:12:35;;;;;;;18.77;8.60;;;;;;;4.98;94.94;102186.81;5030492;28;20057;-73
2022/01/16 10:15:18;;;;;;;24.75;11.23;;;;;;;4.98;94.40;102188.56;5039982;28;20229;-73
2022/01/16 10:17:47;;;;;;;27.83;9.27;;;;;;;5.01;94.43;102188.44;5019310;28;20641;-72
2022/01/16 10:20:16;;;;;;;19.65;10.18;;;;;;;5.06;94.08;102192.59;5015244;28;20041;-72
2022/01/16 10:22:44;;;;;;;22.42;9.32;;;;;;;5.14;94.54;102187.16;5007174;28;20053;-72
2022/01/16 10:25:13;;;;;;;16.13;9.55;;;;;;;5.23;94.43;102195.47;5015678;28;20056;-73
2022/01/16 10:27:42;;;;;;;22.73;13.48;;;;;;;5.29;93.92;102191.81;5021924;28;20036;-73
2022/01/16 10:30:12;;;;;;;41.15;13.60;;;;;;;5.37;93.84;102198.50;5016326;28;20037;-73
2022/01/16 10:32:41;;;;;;;25.90;11.00;;;;;;;5.37;93.15;102195.88;5015075;28;20042;-72
2022/01/16 10:35:10;;;;;;;26.85;11.95;;;;;;;5.43;93.74;102200.88;5010895;28;20046;-67
2022/01/16 10:37:36;;;;;;;29.50;11.20;;;;;;;5.42;93.28;102193.97;5011877;28;20057;-73
2022/01/16 10:40:06;;;;;;;21.92;10.70;;;;;;;5.42;93.32;102193.97;5010610;28;20488;-72
2022/01/16 10:42:34;;;;;;;28.13;12.43;;;;;;;5.43;93.21;102192.19;5019015;28;20081;-73
2022/01/16 10:45:06;;;;;;;26.30;12.50;;;;;;;5.42;93.09;102206.97;5010155;28;20080;-73
2022/01/16 10:47:35;;;;;;;30.83;12.13;;;;;;;5.43;93.84;102208.69;5013351;28;20224;-74
2022/01/16 10:53:19;;;;;;;18.35;9.75;;;;;;;5.44;93.52;102218.22;2890918;26;20057;-74
2022/01/16 10:56:06;;;;;;;37.97;14.85;;;;;;;5.49;93.87;102221.50;5032446;28;20097;-72
2022/01/16 10:58:56;;;;;;;27.85;12.52;;;;;;;5.57;93.37;102219.47;5041701;28;20072;-71
2022/01/16 11:02:07;;;;;;;30.52;10.63;;;;;;;5.66;93.05;102221.75;5041753;28;20041;-73
2022/01/16 11:04:54;;;;;;;15.32;8.27;;;;;;;5.64;92.80;102220.94;5041775;28;20055;-73
2022/01/16 11:07:42;;;;;;;32.13;13.80;;;;;;;5.59;92.42;102230.69;5059840;28;20045;-71
2022/01/16 11:10:31;;;;;;;22.05;11.38;;;;;;;5.74;92.93;102227.53;5061715;28;20052;-71
2022/01/16 11:13:19;;;;;;;34.97;13.93;;;;;;;5.63;92.35;102237.50;5042133;28;20045;-72
2022/01/16 11:16:08;;;;;;;28.40;12.77;;;;;;;5.62;92.69;102228.84;5039248;28;20574;-74
2022/01/16 11:18:56;;;;;;;31.88;13.40;;;;;;;5.76;91.99;102224.00;5040636;28;20057;-73
2022/01/16 11:21:45;;;;;;;27.40;12.43;;;;;;;5.79;91.96;102215.22;5038964;28;20064;-74
2022/01/16 11:24:47;;;;;;;13.30;6.35;;;;;;;5.87;91.72;102216.66;5034697;28;20045;-73
2022/01/16 11:27:35;;;;;;;24.13;10.70;;;;;;;6.02;90.70;102212.63;5036847;28;20056;-72
2022/01/16 11:30:21;;;;;;;28.27;11.82;;;;;;;6.15;90.45;102208.66;5039928;28;20049;-73
2022/01/16 11:33:08;;;;;;;20.60;9.80;;;;;;;6.14;90.32;102220.84;5040034;28;20095;-74
2022/01/16 11:35:58;;;;;;;24.15;11.65;;;;;;;5.92;91.17;102219.94;5041546;28;20060;-73
2022/01/16 11:38:47;;;;;;;17.05;8.85;;;;;;;6.22;90.17;102220.56;5039945;28;20141;-75
2022/01/16 11:41:39;;;;;;;33.45;12.07;;;;;;;6.27;89.69;102221.25;5041211;28;20593;-73
2022/01/16 11:44:28;;;;;;;26.58;6.82;;;;;;;6.19;90.06;102224.13;5038667;28;20053;-73
2022/01/16 11:47:15;;;;;;;20.85;10.10;;;;;;;6.19;89.62;102218.06;5039384;28;20052;-72
2022/01/16 11:50:08;;;;;;;26.73;8.93;;;;;;;6.31;89.85;102218.47;5040794;28;20053;-72
2022/01/16 11:52:57;;;;;;;28.50;11.90;;;;;;;6.83;88.23;102220.69;5039361;28;20163;-73
2022/01/16 11:55:44;;;;;;;14.13;8.02;;;;;;;6.92;86.88;102208.13;5036560;28;20045;-73
2022/01/16 11:59:12;;;;;;;13.13;7.28;;;;;;;7.11;86.29;102198.59;5030365;28;20045;-73
2022/01/16 12:02:01;;;;;;;15.20;6.60;;;;;;;6.65;86.13;102201.41;5037126;28;20037;-69
2022/01/16 12:04:55;;;;;;;19.80;9.82;;;;;;;6.58;87.75;102204.31;5038132;28;20489;-71
2022/01/16 12:07:50;;;;;;;6.82;3.92;;;;;;;6.51;87.01;102201.13;5028873;28;20057;-69
2022/01/16 12:10:47;;;;;;;26.30;8.15;;;;;;;6.64;87.72;102201.47;5029857;28;20663;-73